sensor_id;sensor_type;location;lat;lon;timestamp;temperature;humidity
18297;DHT22;18066;52.106;5.534;2024-03-23T00:55:25;7.80;99.90
18297;DHT22;18066;52.106;5.534;2024-03-23T00:57:53;7.40;99.90
18297;DHT22;18066;52.106;5.534;2024-03-23T01:00:28;8.00;99.90
18297;DHT22;18066;52.106;5.534;2024-03-23T01:03:04;8.30;99.90
18297;DHT22;18066;52.106;5.534;2024-03-23T01:05:34;7.90;99.90
18297;DHT22;18066;52.106;5.534;2024-03-23T01:08:02;8.00;99.90
18297;DHT22;18066;52.106;5.534;2024-03-23T01:10:31;8.70;99.90
18297;DHT22;18066;52.106;5.534;2024-03-23T01:12:57;8.00;99.90
18297;DHT22;18066;52.106;5.534;2024-03-23T01:15:27;8.80;99.90
18297;DHT22;18066;52.106;5.534;2024-03-23T01:18:07;7.60;99.90
18297;DHT22;18066;52.106;5.534;2024-03-23T01:20:38;7.30;99.90
18297;DHT22;18066;52.106;5.534;2024-03-23T01:23:11;8.00;99.90
18297;DHT22;18066;52.106;5.534;2024-03-23T01:25:45;8.00;99.90
18297;DHT22;18066;52.106;5.534;2024-03-23T01:28:19;8.00;99.90
18297;DHT22;18066;52.106;5.534;2024-03-23T01:30:47;8.30;99.90
18297;DHT22;18066;52.106;5.534;2024-03-23T01:33:13;8.30;99.90
18297;DHT22;18066;52.106;5.534;2024-03-23T01:35:45;7.70;99.90
18297;DHT22;18066;52.106;5.534;2024-03-23T01:38:20;8.00;99.90
18297;DHT22;18066;52.106;5.534;2024-03-23T01:40:56;8.50;99.90
18297;DHT22;18066;52.106;5.534;2024-03-23T01:43:25;8.00;99.90
18297;DHT22;18066;52.106;5.534;2024-03-23T01:45:55;9.00;99.90
18297;DHT22;18066;52.106;5.534;2024-03-23T01:48:26;8.00;99.90
18297;DHT22;18066;52.106;5.534;2024-03-23T01:50:59;8.50;99.90
18297;DHT22;18066;52.106;5.534;2024-03-23T01:53:29;8.40;99.90
18297;DHT22;18066;52.106;5.534;2024-03-23T01:55:57;8.60;99.90
18297;DHT22;18066;52.106;5.534;2024-03-23T01:58:23;7.00;99.90
18297;DHT22;18066;52.106;5.534;2024-03-23T02:00:57;8.00;99.90
18297;DHT22;18066;52.106;5.534;2024-03-23T02:03:25;7.20;99.90
18297;DHT22;18066;52.106;5.534;2024-03-23T02:06:07;8.10;99.90
18297;DHT22;18066;52.106;5.534;2024-03-23T02:08:41;7.50;99.90
18297;DHT22;18066;52.106;5.534;2024-03-23T02:11:11;7.40;99.90
18297;DHT22;18066;52.106;5.534;2024-03-23T02:13:39;7.40;99.90
18297;DHT22;18066;52.106;5.534;2024-03-23T02:16:10;8.10;99.90
18297;DHT22;18066;52.106;5.534;2024-03-23T02:18:40;7.40;99.90
18297;DHT22;18066;52.106;5.534;2024-03-23T02:21:07;7.70;99.90
18297;DHT22;18066;52.106;5.534;2024-03-23T02:23:35;7.70;99.90
18297;DHT22;18066;52.106;5.534;2024-03-23T02:26:06;7.90;99.90
18297;DHT22;18066;52.106;5.534;2024-03-23T02:28:34;7.10;99.90
18297;DHT22;18066;52.106;5.534;2024-03-23T02:31:01;7.80;99.90
18297;DHT22;18066;52.106;5.534;2024-03-23T02:33:28;7.10;99.90
18297;DHT22;18066;52.106;5.534;2024-03-23T02:35:56;6.60;99.90
18297;DHT22;18066;52.106;5.534;2024-03-23T02:38:22;8.00;99.90
18297;DHT22;18066;52.106;5.534;2024-03-23T02:40:51;7.70;99.90
18297;DHT22;18066;52.106;5.534;2024-03-23T02:43:17;7.50;99.90
18297;DHT22;18066;52.106;5.534;2024-03-23T02:45:44;7.40;99.90
18297;DHT22;18066;52.106;5.534;2024-03-23T02:48:10;6.70;99.90
18297;DHT22;18066;52.106;5.534;2024-03-23T02:50:37;6.10;99.90
18297;DHT22;18066;52.106;5.534;2024-03-23T02:53:03;7.30;99.90
18297;DHT22;18066;52.106;5.534;2024-03-23T02:55:30;6.80;99.90
18297;DHT22;18066;52.106;5.534;2024-03-23T02:58:00;7.00;99.90
18297;DHT22;18066;52.106;5.534;2024-03-23T03:00:32;6.90;99.90
18297;DHT22;18066;52.106;5.534;2024-03-23T03:02:59;6.70;99.90
18297;DHT22;18066;52.106;5.534;2024-03-23T03:05:26;7.60;99.90
18297;DHT22;18066;52.106;5.534;2024-03-23T03:07:52;6.90;99.90
18297;DHT22;18066;52.106;5.534;2024-03-23T03:10:26;6.80;99.90
18297;DHT22;18066;52.106;5.534;2024-03-23T03:13:03;7.40;99.90
18297;DHT22;18066;52.106;5.534;2024-03-23T03:15:32;7.30;99.90
18297;DHT22;18066;52.106;5.534;2024-03-23T03:17:58;6.60;99.90
18297;DHT22;18066;52.106;5.534;2024-03-23T03:20:25;6.50;99.90
18297;DHT22;18066;52.106;5.534;2024-03-23T03:22:51;6.40;99.90
18297;DHT22;18066;52.106;5.534;2024-03-23T03:25:19;6.70;99.90
18297;DHT22;18066;52.106;5.534;2024-03-23T03:27:45;6.40;99.90
18297;DHT22;18066;52.106;5.534;2024-03-23T03:30:22;6.30;99.90
18297;DHT22;18066;52.106;5.534;2024-03-23T03:32:48;6.90;99.90
18297;DHT22;18066;52.106;5.534;2024-03-23T03:35:23;6.90;99.90
18297;DHT22;18066;52.106;5.534;2024-03-23T03:37:49;6.60;99.90
18297;DHT22;18066;52.106;5.534;2024-03-23T03:40:19;6.10;99.90
18297;DHT22;18066;52.106;5.534;2024-03-23T03:42:45;5.90;99.90
18297;DHT22;18066;52.106;5.534;2024-03-23T03:45:11;7.00;99.90
18297;DHT22;18066;52.106;5.534;2024-03-23T03:47:39;6.60;99.90
18297;DHT22;18066;52.106;5.534;2024-03-23T03:50:08;6.90;99.90
18297;DHT22;18066;52.106;5.534;2024-03-23T03:52:37;6.10;99.90
18297;DHT22;18066;52.106;5.534;2024-03-23T03:55:12;6.10;99.90
18297;DHT22;18066;52.106;5.534;2024-03-23T03:57:41;6.00;99.90
18297;DHT22;18066;52.106;5.534;2024-03-23T04:00:12;6.10;99.90
18297;DHT22;18066;52.106;5.534;2024-03-23T04:02:39;6.10;99.90
18297;DHT22;18066;52.106;5.534;2024-03-23T04:05:07;6.50;99.90
18297;DHT22;18066;52.106;5.534;2024-03-23T04:07:33;6.00;99.90
18297;DHT22;18066;52.106;5.534;2024-03-23T04:10:00;6.80;99.90
18297;DHT22;18066;52.106;5.534;2024-03-23T04:12:26;5.50;99.90
18297;DHT22;18066;52.106;5.534;2024-03-23T04:14:55;5.50;99.90
18297;DHT22;18066;52.106;5.534;2024-03-23T04:17:23;6.30;99.90
18297;DHT22;18066;52.106;5.534;2024-03-23T04:19:52;5.60;99.90
18297;DHT22;18066;52.106;5.534;2024-03-23T04:22:19;6.10;99.90
18297;DHT22;18066;52.106;5.534;2024-03-23T04:24:50;5.80;99.90
18297;DHT22;18066;52.106;5.534;2024-03-23T04:27:16;6.50;99.90
18297;DHT22;18066;52.106;5.534;2024-03-23T04:29:47;5.10;99.90
18297;DHT22;18066;52.106;5.534;2024-03-23T04:32:15;5.60;99.90
18297;DHT22;18066;52.106;5.534;2024-03-23T04:34:42;6.10;99.90
18297;DHT22;18066;52.106;5.534;2024-03-23T04:37:10;6.40;99.90
18297;DHT22;18066;52.106;5.534;2024-03-23T04:39:37;6.10;99.90
18297;DHT22;18066;52.106;5.534;2024-03-23T04:42:05;6.00;99.90
18297;DHT22;18066;52.106;5.534;2024-03-23T04:44:32;5.60;99.90
18297;DHT22;18066;52.106;5.534;2024-03-23T04:46:59;6.40;99.90
18297;DHT22;18066;52.106;5.534;2024-03-23T04:49:26;5.70;99.90
18297;DHT22;18066;52.106;5.534;2024-03-23T04:51:53;5.30;99.90
18297;DHT22;18066;52.106;5.534;2024-03-23T04:54:21;5.60;99.90
18297;DHT22;18066;52.106;5.534;2024-03-23T04:56:49;6.40;99.90
18297;DHT22;18066;52.106;5.534;2024-03-23T04:59:16;5.20;99.90
18297;DHT22;18066;52.106;5.534;2024-03-23T05:01:41;5.30;99.90
18297;DHT22;18066;52.106;5.534;2024-03-23T05:04:09;6.60;99.90
18297;DHT22;18066;52.106;5.534;2024-03-23T05:06:35;5.70;99.90
18297;DHT22;18066;52.106;5.534;2024-03-23T05:09:04;6.40;99.90
18297;DHT22;18066;52.106;5.534;2024-03-23T05:11:33;5.60;99.90
18297;DHT22;18066;52.106;5.534;2024-03-23T05:14:00;5.90;99.90
18297;DHT22;18066;52.106;5.534;2024-03-23T05:16:26;5.60;99.90
18297;DHT22;18066;52.106;5.534;2024-03-23T05:18:53;5.40;99.90
18297;DHT22;18066;52.106;5.534;2024-03-23T05:21:19;6.50;99.90
18297;DHT22;18066;52.106;5.534;2024-03-23T05:23:46;5.10;99.90
18297;DHT22;18066;52.106;5.534;2024-03-23T05:26:13;6.10;99.90
18297;DHT22;18066;52.106;5.534;2024-03-23T05:28:41;5.30;99.90
18297;DHT22;18066;52.106;5.534;2024-03-23T05:31:07;6.40;99.90
18297;DHT22;18066;52.106;5.534;2024-03-23T05:33:37;6.00;99.90
18297;DHT22;18066;52.106;5.534;2024-03-23T05:36:04;5.30;99.90
18297;DHT22;18066;52.106;5.534;2024-03-23T05:38:34;4.60;99.90
18297;DHT22;18066;52.106;5.534;2024-03-23T05:41:02;5.60;99.90
18297;DHT22;18066;52.106;5.534;2024-03-23T05:43:31;5.20;99.90
18297;DHT22;18066;52.106;5.534;2024-03-23T05:45:59;5.20;99.90
18297;DHT22;18066;52.106;5.534;2024-03-23T05:48:27;6.40;99.90
18297;DHT22;18066;52.106;5.534;2024-03-23T05:50:55;4.60;99.90
18297;DHT22;18066;52.106;5.534;2024-03-23T05:53:24;5.20;99.90
18297;DHT22;18066;52.106;5.534;2024-03-23T05:55:51;5.90;99.90
18297;DHT22;18066;52.106;5.534;2024-03-23T05:58:19;6.30;99.90
18297;DHT22;18066;52.106;5.534;2024-03-23T06:00:46;5.90;99.90
18297;DHT22;18066;52.106;5.534;2024-03-23T06:03:20;6.30;99.90
18297;DHT22;18066;52.106;5.534;2024-03-23T06:05:50;5.10;99.90
18297;DHT22;18066;52.106;5.534;2024-03-23T06:08:23;6.70;99.90
18297;DHT22;18066;52.106;5.534;2024-03-23T06:10:51;6.00;99.90
18297;DHT22;18066;52.106;5.534;2024-03-23T06:13:34;6.70;99.90
18297;DHT22;18066;52.106;5.534;2024-03-23T06:16:10;5.90;99.90
18297;DHT22;18066;52.106;5.534;2024-03-23T06:19:01;6.00;99.90
18297;DHT22;18066;52.106;5.534;2024-03-23T06:21:56;6.10;99.90
18297;DHT22;18066;52.106;5.534;2024-03-23T06:27:10;6.10;99.90
18297;DHT22;18066;52.106;5.534;2024-03-23T06:29:53;6.10;99.90
18297;DHT22;18066;52.106;5.534;2024-03-23T06:32:22;6.00;99.90
18297;DHT22;18066;52.106;5.534;2024-03-23T06:35:01;6.10;99.90
18297;DHT22;18066;52.106;5.534;2024-03-23T06:37:40;6.40;99.90
18297;DHT22;18066;52.106;5.534;2024-03-23T06:40:15;5.30;99.90
18297;DHT22;18066;52.106;5.534;2024-03-23T06:43:09;5.40;99.90
18297;DHT22;18066;52.106;5.534;2024-03-23T06:45:40;6.40;99.90
18297;DHT22;18066;52.106;5.534;2024-03-23T06:48:07;6.10;99.90
18297;DHT22;18066;52.106;5.534;2024-03-23T06:50:36;6.30;99.90
18297;DHT22;18066;52.106;5.534;2024-03-23T06:53:03;6.60;99.90
18297;DHT22;18066;52.106;5.534;2024-03-23T06:55:32;6.20;99.90
18297;DHT22;18066;52.106;5.534;2024-03-23T06:57:57;6.70;99.90
18297;DHT22;18066;52.106;5.534;2024-03-23T07:00:25;5.70;99.90
18297;DHT22;18066;52.106;5.534;2024-03-23T07:02:51;6.90;99.90
18297;DHT22;18066;52.106;5.534;2024-03-23T07:05:18;6.20;99.90
18297;DHT22;18066;52.106;5.534;2024-03-23T07:07:46;7.30;99.90
18297;DHT22;18066;52.106;5.534;2024-03-23T07:10:13;6.70;99.90
18297;DHT22;18066;52.106;5.534;2024-03-23T07:12:39;6.60;99.90
18297;DHT22;18066;52.106;5.534;2024-03-23T07:15:07;6.90;99.90
18297;DHT22;18066;52.106;5.534;2024-03-23T07:17:35;6.70;99.90
18297;DHT22;18066;52.106;5.534;2024-03-23T07:20:02;6.80;99.90
18297;DHT22;18066;52.106;5.534;2024-03-23T07:22:29;6.90;99.90
18297;DHT22;18066;52.106;5.534;2024-03-23T07:25:00;6.90;99.90
18297;DHT22;18066;52.106;5.534;2024-03-23T07:27:26;7.70;99.90
18297;DHT22;18066;52.106;5.534;2024-03-23T07:29:53;7.00;99.90
18297;DHT22;18066;52.106;5.534;2024-03-23T07:32:20;8.00;99.90
18297;DHT22;18066;52.106;5.534;2024-03-23T07:34:47;8.00;99.90
18297;DHT22;18066;52.106;5.534;2024-03-23T07:37:13;8.20;99.90
18297;DHT22;18066;52.106;5.534;2024-03-23T07:39:44;7.60;99.90
18297;DHT22;18066;52.106;5.534;2024-03-23T07:42:14;7.30;99.90
18297;DHT22;18066;52.106;5.534;2024-03-23T07:44:42;7.30;99.90
18297;DHT22;18066;52.106;5.534;2024-03-23T07:47:13;8.40;99.90
18297;DHT22;18066;52.106;5.534;2024-03-23T07:49:40;8.20;99.90
18297;DHT22;18066;52.106;5.534;2024-03-23T07:52:06;8.20;99.90
18297;DHT22;18066;52.106;5.534;2024-03-23T07:54:34;8.40;99.90
18297;DHT22;18066;52.106;5.534;2024-03-23T07:57:00;8.50;99.90
18297;DHT22;18066;52.106;5.534;2024-03-23T07:59:31;7.40;99.90
18297;DHT22;18066;52.106;5.534;2024-03-23T08:01:59;7.90;99.90
18297;DHT22;18066;52.106;5.534;2024-03-23T08:04:27;8.00;99.90
18297;DHT22;18066;52.106;5.534;2024-03-23T08:06:53;7.90;99.90
18297;DHT22;18066;52.106;5.534;2024-03-23T08:09:20;8.00;99.90
18297;DHT22;18066;52.106;5.534;2024-03-23T08:11:46;8.00;99.90
18297;DHT22;18066;52.106;5.534;2024-03-23T08:14:13;8.00;99.90
18297;DHT22;18066;52.106;5.534;2024-03-23T08:16:40;7.80;99.90
18297;DHT22;18066;52.106;5.534;2024-03-23T08:19:07;8.40;99.90
18297;DHT22;18066;52.106;5.534;2024-03-23T08:21:34;7.70;99.90
18297;DHT22;18066;52.106;5.534;2024-03-23T08:24:01;8.30;99.90
18297;DHT22;18066;52.106;5.534;2024-03-23T08:26:27;8.40;99.90
18297;DHT22;18066;52.106;5.534;2024-03-23T08:28:54;7.80;99.90
18297;DHT22;18066;52.106;5.534;2024-03-23T08:31:20;8.00;99.90
18297;DHT22;18066;52.106;5.534;2024-03-23T08:33:48;8.20;99.90
18297;DHT22;18066;52.106;5.534;2024-03-23T08:36:28;7.30;99.90
18297;DHT22;18066;52.106;5.534;2024-03-23T08:39:12;8.10;99.90
18297;DHT22;18066;52.106;5.534;2024-03-23T08:41:38;9.00;99.90
18297;DHT22;18066;52.106;5.534;2024-03-23T08:44:06;7.50;99.90
18297;DHT22;18066;52.106;5.534;2024-03-23T08:46:32;8.50;99.90
18297;DHT22;18066;52.106;5.534;2024-03-23T08:52:10;8.80;99.90
18297;DHT22;18066;52.106;5.534;2024-03-23T08:55:35;8.60;99.90
18297;DHT22;18066;52.106;5.534;2024-03-23T08:58:25;9.60;99.90
18297;DHT22;18066;52.106;5.534;2024-03-23T09:04:51;8.80;99.90
18297;DHT22;18066;52.106;5.534;2024-03-23T09:07:20;8.80;99.90
18297;DHT22;18066;52.106;5.534;2024-03-23T09:09:47;8.50;99.90
18297;DHT22;18066;52.106;5.534;2024-03-23T09:12:16;8.20;99.90
18297;DHT22;18066;52.106;5.534;2024-03-23T09:14:42;8.60;99.90
18297;DHT22;18066;52.106;5.534;2024-03-23T09:17:09;9.10;99.90
18297;DHT22;18066;52.106;5.534;2024-03-23T09:19:36;9.20;99.90
18297;DHT22;18066;52.106;5.534;2024-03-23T09:22:07;9.80;99.90
18297;DHT22;18066;52.106;5.534;2024-03-23T09:24:33;9.50;99.90
18297;DHT22;18066;52.106;5.534;2024-03-23T09:27:02;9.90;99.90
18297;DHT22;18066;52.106;5.534;2024-03-23T09:29:28;9.40;99.90
18297;DHT22;18066;52.106;5.534;2024-03-23T09:31:57;9.50;99.90
18297;DHT22;18066;52.106;5.534;2024-03-23T09:34:34;9.50;99.90
18297;DHT22;18066;52.106;5.534;2024-03-23T09:37:04;9.00;99.90
18297;DHT22;18066;52.106;5.534;2024-03-23T09:39:34;9.00;99.90
18297;DHT22;18066;52.106;5.534;2024-03-23T09:42:01;9.00;99.90
18297;DHT22;18066;52.106;5.534;2024-03-23T09:44:34;8.90;99.90
18297;DHT22;18066;52.106;5.534;2024-03-23T09:47:05;8.50;99.90
18297;DHT22;18066;52.106;5.534;2024-03-23T09:49:31;8.40;99.90
18297;DHT22;18066;52.106;5.534;2024-03-23T09:52:02;9.00;99.90
18297;DHT22;18066;52.106;5.534;2024-03-23T09:54:28;9.10;99.90
18297;DHT22;18066;52.106;5.534;2024-03-23T09:57:06;9.10;99.90
18297;DHT22;18066;52.106;5.534;2024-03-23T09:59:38;9.30;99.90
18297;DHT22;18066;52.106;5.534;2024-03-23T10:02:07;8.60;99.90
18297;DHT22;18066;52.106;5.534;2024-03-23T10:04:39;7.60;99.90
18297;DHT22;18066;52.106;5.534;2024-03-23T10:07:13;8.70;99.90
18297;DHT22;18066;52.106;5.534;2024-03-23T10:09:43;7.70;99.90
18297;DHT22;18066;52.106;5.534;2024-03-23T10:12:13;8.20;99.90
18297;DHT22;18066;52.106;5.534;2024-03-23T10:14:41;7.40;99.90
18297;DHT22;18066;52.106;5.534;2024-03-23T10:17:21;8.20;99.90
18297;DHT22;18066;52.106;5.534;2024-03-23T10:19:51;7.50;99.90
18297;DHT22;18066;52.106;5.534;2024-03-23T10:22:58;7.40;99.90
18297;DHT22;18066;52.106;5.534;2024-03-23T10:28:31;8.10;99.90
18297;DHT22;18066;52.106;5.534;2024-03-23T10:31:14;8.40;99.90
18297;DHT22;18066;52.106;5.534;2024-03-23T10:36:52;8.70;99.90
18297;DHT22;18066;52.106;5.534;2024-03-23T10:39:22;8.30;99.90
18297;DHT22;18066;52.106;5.534;2024-03-23T10:41:50;8.20;99.90
18297;DHT22;18066;52.106;5.534;2024-03-23T10:44:34;8.40;99.90
18297;DHT22;18066;52.106;5.534;2024-03-23T10:47:29;8.70;99.90
18297;DHT22;18066;52.106;5.534;2024-03-23T10:50:01;8.50;99.90
18297;DHT22;18066;52.106;5.534;2024-03-23T10:52:34;8.60;99.90
18297;DHT22;18066;52.106;5.534;2024-03-23T10:55:08;8.70;99.90
18297;DHT22;18066;52.106;5.534;2024-03-23T11:05:37;8.70;99.90
18297;DHT22;18066;52.106;5.534;2024-03-23T11:08:55;7.60;99.90
18297;DHT22;18066;52.106;5.534;2024-03-23T11:46:43;9.90;99.90
18297;DHT22;18066;52.106;5.534;2024-03-23T15:10:58;8.80;99.90
18297;DHT22;18066;52.106;5.534;2024-03-23T15:14:24;8.20;99.90
18297;DHT22;18066;52.106;5.534;2024-03-23T15:23:53;10.40;99.90
18297;DHT22;18066;52.106;5.534;2024-03-23T15:26:39;9.70;99.90
18297;DHT22;18066;52.106;5.534;2024-03-23T15:33:05;11.70;99.90
18297;DHT22;18066;52.106;5.534;2024-03-23T15:38:41;11.20;99.90
18297;DHT22;18066;52.106;5.534;2024-03-23T16:01:25;8.90;99.90
18297;DHT22;18066;52.106;5.534;2024-03-23T18:01:26;6.40;99.90
18297;DHT22;18066;52.106;5.534;2024-03-23T18:04:36;7.30;99.90
18297;DHT22;18066;52.106;5.534;2024-03-23T18:14:13;7.50;99.90
18297;DHT22;18066;52.106;5.534;2024-03-23T18:17:33;7.00;99.90
18297;DHT22;18066;52.106;5.534;2024-03-23T18:20:43;7.30;99.90
18297;DHT22;18066;52.106;5.534;2024-03-23T18:33:02;6.10;99.90
18297;DHT22;18066;52.106;5.534;2024-03-23T18:39:27;6.50;99.90
18297;DHT22;18066;52.106;5.534;2024-03-23T18:42:34;6.90;99.90
18297;DHT22;18066;52.106;5.534;2024-03-23T18:45:11;6.60;99.90
18297;DHT22;18066;52.106;5.534;2024-03-23T19:05:56;6.50;99.90
18297;DHT22;18066;52.106;5.534;2024-03-23T19:09:02;6.90;99.90
18297;DHT22;18066;52.106;5.534;2024-03-23T19:12:21;6.60;99.90
18297;DHT22;18066;52.106;5.534;2024-03-23T19:15:31;6.00;99.90
18297;DHT22;18066;52.106;5.534;2024-03-23T19:18:07;6.40;99.90
18297;DHT22;18066;52.106;5.534;2024-03-23T19:45:12;6.20;99.90
